Hunt Field Lander US
ICAO: KLND
IATA: LND
Category: Medium
Scheduled Services: No

Elevation: 5586 ft
TransAlt. 18000 ft.

Airport Communications:
ASOS:118.15
CTAF/UNICOM:122.8

KLND Zoom In..

If you have problems with the map follow the link
https://www.worldairports.se/pages/airport.php?
ICAO=KLND

Runways:

(A) RW 03 length 5007 ft width 100 ft
---- / hdg 36

(B) RW 21 length 5007 ft width 100 ft
---- / hdg 216

Location; KLND
Day. 17 / Time. 02.53 Zulu
* Altimeter: 30.11
* Temperature: -01° c. -30.2°f.
* Wind from: 040° Speed 07 kn.
Dewpoint: -02° c.
Visibility: 1 m.
Clouds: Overcast 500 ft.
Conditions: Light Snow.Conditions: Mist.

KLND 170253Z AUTO 04007KT 1 1/4SM -SN BR OVC005 M01/M02 A3011 RMK AO2 SLP215 P0004 60005 T10061017 51010


Wind From 040°
Speed 07 kn.

 
 
jpsmedia.com for Web Design worldairports.se 2018   terms of use